»·PEaware :: DIHNF KBAM-KLOL

DIHNF :: KBAM-KLOL

FLIGHT INFORMATION

Flight Status: Arrived
Operator: Unknown
More flights by this operator :: More flights under this callsign
Pilot: Klaus A. (15485)
Aircraft: BEECH AIRCRAFT BARON
(BE58)
More flights by this aircraft type
Origin: KBAM Battle Mountain
United States
Destination: KLOL Derby
United States
More flights between these airports :: More routes between these airports
Route: +BAM T331 LLC
File this flight plan on PilotEdge
Remarks: Dep. via ODP RWY 31
Altitude:
(Current/Filed)
12,000ft
Speed:
(Current/Filed)
170kts
Departed: 22-Apr-19 08:55 AM
Arrived: 22-Apr-19 09:38 AM
Distance/Time
Traveled:
84nm/0:42
Distance/Time
To Go:
Arrived

Flight Plot

Page will automatically refresh every two minutes.

Flight plan parsing failed; only flown route is shown


Map Options




Map Legend


Flown Route
Filed Route
Departure Airport
Arrival Airport
Navaid (VOR, NDB)
Fix

Horizontal Profiles

Position Reports

Time Latitude Longitude Heading Altitude Ground
Speed
22-Apr-19 08:08 40.606844 -116.874844 262 4536ft 0kts
22-Apr-19 08:09 40.606844 -116.874844 262 4536ft 0kts
22-Apr-19 08:10 40.606844 -116.874844 262 4536ft 0kts
22-Apr-19 08:11 40.606844 -116.874844 262 4536ft 0kts
22-Apr-19 08:12 40.606844 -116.874844 262 4536ft 0kts
22-Apr-19 08:13 40.606844 -116.874844 262 4536ft 0kts
22-Apr-19 08:14 40.606844 -116.874844 262 4536ft 0kts
22-Apr-19 08:15 40.606844 -116.874844 262 4536ft 0kts
22-Apr-19 08:16 40.606844 -116.874844 262 4536ft 0kts
22-Apr-19 08:17 40.606844 -116.874844 262 4536ft 0kts
22-Apr-19 08:18 40.606844 -116.874844 262 4536ft 0kts
22-Apr-19 08:19 40.606844 -116.874844 262 4536ft 0kts
22-Apr-19 08:20 40.606844 -116.874844 262 4536ft 0kts
22-Apr-19 08:24 40.606844 -116.874844 262 4536ft 0kts
22-Apr-19 08:25 40.606844 -116.874844 262 4536ft 0kts
22-Apr-19 08:31 40.606844 -116.874844 262 4536ft 0kts
22-Apr-19 08:32 40.606844 -116.874844 262 4536ft 0kts
22-Apr-19 08:33 40.606844 -116.874844 262 4536ft 0kts
22-Apr-19 08:34 40.606844 -116.874844 262 4536ft 0kts
22-Apr-19 08:35 40.606844 -116.874844 262 4536ft 0kts
22-Apr-19 08:36 40.606844 -116.874844 262 4536ft 0kts
22-Apr-19 08:37 40.606844 -116.874844 262 4536ft 0kts
22-Apr-19 08:38 40.606844 -116.874844 262 4536ft 0kts
22-Apr-19 08:39 40.606844 -116.874844 262 4536ft 0kts
22-Apr-19 08:40 40.606844 -116.874844 262 4536ft 0kts
22-Apr-19 08:41 40.606844 -116.874844 262 4536ft 0kts
22-Apr-19 08:42 40.606844 -116.874844 262 4536ft 0kts
22-Apr-19 08:43 40.606436 -116.874287 173 4536ft 7kts
22-Apr-19 08:44 40.602854 -116.875339 195 4536ft 19kts
22-Apr-19 08:45 40.600840 -116.877183 306 4536ft 16kts
22-Apr-19 08:46 40.597692 -116.873645 142 4536ft 37kts
22-Apr-19 08:47 40.591687 -116.865871 47 4536ft 12kts
22-Apr-19 08:48 40.590694 -116.864332 229 4536ft 0kts
22-Apr-19 08:49 40.590694 -116.864332 228 4536ft 0kts
22-Apr-19 08:50 40.590694 -116.864332 228 4536ft 0kts
22-Apr-19 08:51 40.590694 -116.864332 228 4536ft 0kts
22-Apr-19 08:52 40.590694 -116.864332 228 4536ft 0kts
22-Apr-19 08:53 40.590694 -116.864332 228 4536ft 0kts
22-Apr-19 08:54 40.594541 -116.870090 319 4539ft 97kts
22-Apr-19 08:55 40.618988 -116.899576 314 5705ft 124kts
22-Apr-19 08:56 40.643198 -116.931515 319 6956ft 125kts
22-Apr-19 08:57 40.667385 -116.964464 322 8065ft 128kts
22-Apr-19 08:58 40.699645 -116.980932 347 9061ft 123kts
22-Apr-19 08:59 40.712070 -117.018625 235 9947ft 151kts
22-Apr-19 09:00 40.680721 -117.058809 224 10682ft 158kts
22-Apr-19 09:01 40.649316 -117.100279 227 11410ft 161kts
22-Apr-19 09:02 40.616563 -117.141953 226 12077ft 165kts
22-Apr-19 09:03 40.583739 -117.184908 223 12678ft 169kts
22-Apr-19 09:04 40.544067 -117.231408 223 12198ft 213kts
22-Apr-19 09:05 40.499633 -117.283106 222 11979ft 208kts
22-Apr-19 09:06 40.461099 -117.337490 237 11960ft 205kts
22-Apr-19 09:07 40.438191 -117.404106 255 11994ft 198kts
22-Apr-19 09:08 40.420862 -117.472929 259 12000ft 198kts
22-Apr-19 09:09 40.404521 -117.542124 253 12001ft 200kts
22-Apr-19 09:10 40.384421 -117.610114 254 12008ft 199kts
22-Apr-19 09:11 40.370723 -117.679959 264 12006ft 196kts
22-Apr-19 09:12 40.356429 -117.748903 253 12006ft 198kts
22-Apr-19 09:13 40.337251 -117.816849 254 12007ft 198kts
22-Apr-19 09:14 40.318551 -117.884856 254 11998ft 199kts
22-Apr-19 09:16 40.299843 -117.952840 254 11998ft 198kts
22-Apr-19 09:17 40.281086 -118.020848 254 11998ft 198kts
22-Apr-19 09:18 40.262233 -118.089010 254 11998ft 198kts
22-Apr-19 09:19 40.243439 -118.156768 254 11999ft 197kts
22-Apr-19 09:20 40.224647 -118.224158 254 11998ft 196kts
22-Apr-19 09:21 40.205957 -118.291085 255 11999ft 197kts
22-Apr-19 09:22 40.187300 -118.357699 255 11999ft 197kts
22-Apr-19 09:23 40.168372 -118.425082 254 12009ft 198kts
22-Apr-19 09:24 40.149304 -118.492847 254 11973ft 199kts
22-Apr-19 09:25 40.131040 -118.560554 256 12026ft 197kts
22-Apr-19 09:26 40.112357 -118.628012 250 12045ft 199kts
22-Apr-19 09:27 40.093800 -118.694966 256 12053ft 197kts
22-Apr-19 09:28 40.076489 -118.762927 254 12062ft 198kts
22-Apr-19 09:29 40.051016 -118.826479 209 11856ft 212kts
22-Apr-19 09:30 39.997319 -118.857030 197 11221ft 210kts
22-Apr-19 09:31 39.957645 -118.820810 107 10232ft 185kts
22-Apr-19 09:32 39.935682 -118.760408 111 9323ft 179kts
22-Apr-19 09:33 39.953525 -118.714960 27 8130ft 149kts
22-Apr-19 09:34 39.977124 -118.672423 69 6657ft 149kts
22-Apr-19 09:35 40.003327 -118.635328 43 5427ft 135kts
22-Apr-19 09:36 40.029506 -118.606558 41 4759ft 117kts
22-Apr-19 09:37 40.052961 -118.579442 27 4108ft 108kts
22-Apr-19 09:38 40.068293 -118.568223 345 3908ft 8kts
22-Apr-19 09:39 40.069273 -118.568594 334 3908ft 3kts
22-Apr-19 09:40 40.069390 -118.568945 255 3908ft 0kts
22-Apr-19 09:41 40.069390 -118.568945 255 3908ft 0kts

Navigation Log

Ident Type
Flight plan parsing failed, navigation log unavailable